createdAt,value
2023-02-19T00:01:38.537Z,9.64
2023-02-19T00:06:43.289Z,9.63
2023-02-19T00:11:48.672Z,9.66
2023-02-19T00:16:52.073Z,9.67
2023-02-19T00:21:56.158Z,9.71
2023-02-19T00:27:00.939Z,9.70
2023-02-19T00:32:04.501Z,9.69
2023-02-19T00:37:07.931Z,9.62
2023-02-19T00:42:12.715Z,9.60
2023-02-19T00:47:16.185Z,9.69
2023-02-19T00:52:19.810Z,9.53
2023-02-19T00:57:24.925Z,9.46
2023-02-19T01:02:28.321Z,9.52
2023-02-19T01:07:32.062Z,9.59
2023-02-19T01:12:36.907Z,9.61
2023-02-19T01:17:40.322Z,9.74
2023-02-19T01:22:43.904Z,9.74
2023-02-19T01:27:48.716Z,9.72
2023-02-19T01:32:53.758Z,9.74
2023-02-19T01:37:57.154Z,9.74
2023-02-19T01:43:03.744Z,9.63
2023-02-19T01:48:12.357Z,9.52
2023-02-19T01:53:19.384Z,9.48
2023-02-19T01:58:25.594Z,9.37
2023-02-19T02:03:29.944Z,9.24
2023-02-19T02:08:52.352Z,9.41
2023-02-19T02:14:00.098Z,9.59
2023-02-19T02:19:15.986Z,9.82
2023-02-19T02:24:38.842Z,9.86
2023-02-19T02:30:24.132Z,9.98
2023-02-19T02:35:31.846Z,9.90
2023-02-19T02:40:36.403Z,10.05
2023-02-19T02:45:42.951Z,10.15
2023-02-19T02:51:03.880Z,10.20
2023-02-19T02:56:14.708Z,10.13
2023-02-19T03:01:41.657Z,10.06
2023-02-19T03:06:48.331Z,10.07
2023-02-19T03:12:11.389Z,10.12
2023-02-19T03:17:40.818Z,10.12
2023-02-19T03:22:47.910Z,10.29
2023-02-19T03:27:53.577Z,10.26
2023-02-19T03:33:01.419Z,10.10
2023-02-19T03:38:12.522Z,10.04
2023-02-19T03:43:22.995Z,9.93
2023-02-19T03:48:33.616Z,10.02
2023-02-19T03:53:48.875Z,9.95
2023-02-19T03:58:58.092Z,10.04
2023-02-19T04:04:09.150Z,10.10
2023-02-19T04:09:15.867Z,10.05
2023-02-19T04:14:28.199Z,10.04
2023-02-19T04:19:38.162Z,9.98
2023-02-19T04:24:47.483Z,9.81
2023-02-19T04:29:51.191Z,9.70
2023-02-19T04:34:55.996Z,9.61
2023-02-19T04:39:59.363Z,9.57
2023-02-19T04:45:03.240Z,9.48
2023-02-19T04:50:09.077Z,9.51
2023-02-19T04:55:12.447Z,9.47
2023-02-19T05:00:16.624Z,9.39
2023-02-19T05:05:21.357Z,9.37
2023-02-19T05:10:24.833Z,9.29
2023-02-19T05:15:28.204Z,9.20
2023-02-19T05:20:33.034Z,9.20
2023-02-19T05:25:36.637Z,9.30
2023-02-19T05:30:40.370Z,9.35
2023-02-19T05:35:47.067Z,9.42
2023-02-19T05:40:50.497Z,9.49
2023-02-19T05:45:53.936Z,9.61
2023-02-19T05:51:03.576Z,9.70
2023-02-19T05:56:25.169Z,9.82
2023-02-19T06:01:30.447Z,9.99
2023-02-19T06:06:35.489Z,10.18
2023-02-19T06:11:39.522Z,10.34
2023-02-19T06:16:43.696Z,10.39
2023-02-19T06:21:51.640Z,10.52
2023-02-19T06:26:55.034Z,10.62
2023-02-19T06:31:58.569Z,10.81
2023-02-19T06:37:03.698Z,10.93
2023-02-19T06:42:07.163Z,11.10
2023-02-19T06:47:10.634Z,11.29
2023-02-19T06:52:15.425Z,11.58
2023-02-19T06:57:19.070Z,11.67
2023-02-19T07:02:22.413Z,11.76
2023-02-19T07:07:27.434Z,11.69
2023-02-19T07:12:30.873Z,11.86
2023-02-19T07:17:35.411Z,12.06
2023-02-19T07:22:40.438Z,12.18
2023-02-19T07:27:43.801Z,12.45
2023-02-19T07:32:47.149Z,12.53
2023-02-19T07:37:51.920Z,12.72
2023-02-19T07:42:55.278Z,12.82
2023-02-19T07:47:58.679Z,13.06
2023-02-19T07:53:03.435Z,12.94
2023-02-19T07:58:06.863Z,13.22
2023-02-19T08:03:10.656Z,13.39
2023-02-19T08:08:16.581Z,13.61
2023-02-19T08:13:20.509Z,13.80
2023-02-19T08:18:25.738Z,13.89
2023-02-19T08:23:31.021Z,14.27
2023-02-19T08:28:34.701Z,14.39
2023-02-19T08:33:38.453Z,14.57
2023-02-19T08:38:43.550Z,15.07
2023-02-19T08:43:46.960Z,15.19
2023-02-19T08:48:50.677Z,15.30
2023-02-19T08:53:55.689Z,15.58
2023-02-19T08:58:59.032Z,15.58
2023-02-19T09:04:02.693Z,16.01
2023-02-19T09:09:07.548Z,16.36
2023-02-19T09:14:11.104Z,16.48
2023-02-19T09:19:14.524Z,16.83
2023-02-19T09:24:19.255Z,16.78
2023-02-19T09:29:23.862Z,17.00
2023-02-19T09:34:28.045Z,17.16
2023-02-19T09:39:33.200Z,17.11
2023-02-19T09:44:39.583Z,17.17
2023-02-19T09:49:50.092Z,17.44
2023-02-19T09:54:59.349Z,17.49
2023-02-19T10:00:10.343Z,17.93
2023-02-19T10:05:15.726Z,17.99
2023-02-19T10:10:33.247Z,18.39
2023-02-19T10:15:42.587Z,18.46
2023-02-19T10:20:47.136Z,18.29
2023-02-19T10:25:57.143Z,18.48
2023-02-19T10:31:02.083Z,17.82
2023-02-19T10:36:08.919Z,17.63
2023-02-19T10:41:18.108Z,18.08
2023-02-19T10:46:24.857Z,18.81
2023-02-19T10:51:34.188Z,19.08
2023-02-19T10:56:40.820Z,18.35
2023-02-19T11:01:55.169Z,18.19
2023-02-19T11:06:58.664Z,19.06
2023-02-19T11:12:05.082Z,19.33
2023-02-19T11:17:08.877Z,18.66
2023-02-19T11:22:31.172Z,19.70
2023-02-19T11:27:35.959Z,19.23
2023-02-19T11:32:39.312Z,19.62
2023-02-19T11:37:56.366Z,19.74
2023-02-19T11:43:14.103Z,19.73
2023-02-19T11:48:34.001Z,19.62
2023-02-19T11:53:48.086Z,19.33
2023-02-19T11:59:00.938Z,19.54
2023-02-19T12:04:37.768Z,19.51
2023-02-19T12:09:59.957Z,19.00
2023-02-19T12:15:32.209Z,18.45
2023-02-19T12:20:44.033Z,17.60
2023-02-19T12:26:01.316Z,17.18
2023-02-19T12:31:35.788Z,17.23
2023-02-19T12:36:50.969Z,17.09
2023-02-19T12:42:03.521Z,16.92
2023-02-19T12:47:12.007Z,16.78
2023-02-19T12:52:20.220Z,16.69
2023-02-19T12:57:27.289Z,16.78
2023-02-19T13:02:39.579Z,16.83
2023-02-19T13:07:50.306Z,16.74
2023-02-19T13:12:56.774Z,16.91
2023-02-19T13:18:04.270Z,17.33
2023-02-19T13:23:30.468Z,17.22
2023-02-19T13:28:51.644Z,17.35
2023-02-19T13:34:06.987Z,17.40
2023-02-19T13:44:28.622Z,17.30
2023-02-19T13:49:43.424Z,17.29
2023-02-19T13:54:46.730Z,17.23
2023-02-19T13:59:51.051Z,17.23
2023-02-19T14:05:00.243Z,17.01
2023-02-19T14:10:04.954Z,16.72
2023-02-19T14:15:41.661Z,16.88
2023-02-19T14:20:47.747Z,17.07
2023-02-19T14:25:56.062Z,16.97
2023-02-19T14:31:02.375Z,16.83
2023-02-19T14:36:16.471Z,16.64
2023-02-19T14:47:46.256Z,16.14
2023-02-19T14:58:55.739Z,16.11
2023-02-19T15:04:52.815Z,15.89
2023-02-19T15:10:09.388Z,15.61
2023-02-19T15:15:20.574Z,15.38
2023-02-19T15:20:30.485Z,15.27
2023-02-19T15:25:39.611Z,15.10
2023-02-19T15:30:44.783Z,14.86
2023-02-19T15:35:53.280Z,14.69
2023-02-19T15:41:02.797Z,14.52
2023-02-19T15:46:22.570Z,14.37
2023-02-19T15:51:34.421Z,14.30
2023-02-19T15:56:47.384Z,14.14
2023-02-19T16:01:52.174Z,13.94
2023-02-19T16:07:02.195Z,13.96
2023-02-19T16:12:24.201Z,13.93
2023-02-19T16:17:31.560Z,13.67
2023-02-19T16:22:43.461Z,13.65
2023-02-19T16:27:49.584Z,13.56
2023-02-19T16:33:30.365Z,13.49
2023-02-19T16:38:34.337Z,13.36
2023-02-19T16:43:45.380Z,13.33
2023-02-19T16:48:50.882Z,13.33
2023-02-19T16:53:56.960Z,13.15
2023-02-19T16:59:07.503Z,13.14
2023-02-19T17:04:15.924Z,13.16
2023-02-19T17:09:35.677Z,13.16
2023-02-19T17:14:44.265Z,13.16
2023-02-19T17:19:49.007Z,13.20
2023-02-19T17:24:55.439Z,13.21
2023-02-19T17:30:03.258Z,13.24
2023-02-19T17:36:06.709Z,13.21
2023-02-19T17:41:11.889Z,13.12
2023-02-19T17:46:19.685Z,13.10
2023-02-19T17:51:25.695Z,13.02
2023-02-19T17:56:33.023Z,12.98
2023-02-19T18:01:38.975Z,12.83
2023-02-19T18:06:44.387Z,12.69
2023-02-19T18:11:48.821Z,12.68
2023-02-19T18:16:54.355Z,12.57
2023-02-19T18:21:59.219Z,12.61
2023-02-19T18:27:03.542Z,12.61
2023-02-19T18:32:10.742Z,12.59
2023-02-19T18:52:07.295Z,12.56
2023-02-19T18:57:17.207Z,12.51
2023-02-19T19:02:21.712Z,12.29
2023-02-19T19:07:27.931Z,12.30
2023-02-19T19:12:54.982Z,12.35
2023-02-19T19:18:00.720Z,12.35
2023-02-19T19:23:07.987Z,12.43
2023-02-19T19:28:12.868Z,12.37
2023-02-19T19:33:17.827Z,12.33
2023-02-19T19:38:34.894Z,12.30
2023-02-19T19:43:39.852Z,12.27
2023-02-19T19:48:43.814Z,12.26
2023-02-19T19:53:51.367Z,12.16
2023-02-19T19:59:02.763Z,12.22
2023-02-19T20:04:08.584Z,12.21
2023-02-19T20:09:25.700Z,12.13
2023-02-19T20:14:29.832Z,12.16
2023-02-19T20:19:35.920Z,12.08
2023-02-19T20:24:42.167Z,12.04
2023-02-19T20:29:53.387Z,12.06
2023-02-19T20:35:01.683Z,11.93
2023-02-19T20:40:10.633Z,11.88
2023-02-19T20:45:17.389Z,11.72
2023-02-19T20:50:23.714Z,11.84
2023-02-19T20:55:30.490Z,11.91
2023-02-19T21:00:35.944Z,11.90
2023-02-19T21:05:41.603Z,11.97
2023-02-19T21:10:49.516Z,12.12
2023-02-19T21:15:54.046Z,12.19
2023-02-19T21:20:58.403Z,12.22
2023-02-19T21:26:06.139Z,12.34
2023-02-19T21:31:11.148Z,12.35
2023-02-19T21:36:16.089Z,12.39
2023-02-19T21:41:21.762Z,12.48
2023-02-19T21:46:27.980Z,12.53
2023-02-19T21:51:35.145Z,12.55
2023-02-19T21:56:47.015Z,12.56
2023-02-19T22:01:53.721Z,12.57
2023-02-19T22:06:58.803Z,12.57
2023-02-19T22:12:04.460Z,12.55
2023-02-19T22:17:11.472Z,12.45
2023-02-19T22:22:16.831Z,12.46
2023-02-19T22:27:24.702Z,12.40
2023-02-19T22:32:28.956Z,12.35
2023-02-19T22:37:42.953Z,12.29
2023-02-19T22:42:51.474Z,12.26
2023-02-19T22:48:01.150Z,12.26
2023-02-19T22:53:11.957Z,12.24
2023-02-19T22:58:23.794Z,12.23
2023-02-19T23:03:32.325Z,12.13
2023-02-19T23:08:41.049Z,12.12
2023-02-19T23:13:51.732Z,12.10
2023-02-19T23:18:56.771Z,12.05
2023-02-19T23:24:02.543Z,11.94
2023-02-19T23:29:14.666Z,11.94
2023-02-19T23:34:22.171Z,11.81
2023-02-19T23:39:27.941Z,11.72
2023-02-19T23:44:35.504Z,11.62
2023-02-19T23:49:41.181Z,11.60
2023-02-19T23:54:52.457Z,11.51
